Tiempo atmosférico en la estación meteorológica de Fuente De Piedra, Málaga (423 m.)



Fecha
DESCASC
Temp. máxima en grados centígrados (hora)
DESCASC
Temp. mínima en grados centígrados (hora)
DESCASC
Temp. media en grados centígrados
DESCASC
Racha de viento máxima en m/sg (hora)
DESCASC
Velocidad máxima media en intervalos de 10 minutos(hora)
DESCASC
Precipitaciones diarias en mm
DESCASC
Precipitaciones de 00:00 a 06:00 en mm
DESCASC
Precipitaciones de 06:00 a 12:00 en mm
DESCASC
Precipitaciones de 12:00 a 18:00 en mm
DESCASC
Precipitaciones de 18:00 a 24:00 en mm
DESCASC
20-12-2019 16.8 (16:10) 13.1 (00:00) 14.9 19.44 (07:20) 13.33 (06:30) 23.6 3.4 6.6 11.4 2.2
21-12-2019 17.3 (16:40) 13.7 (00:00) 15.5 17.22 (05:00) 10.83 (18:50) 2.2 1 0.6 0.4 0.2
19-12-2019 13.3 (12:40) 5.1 (03:00) 9.2 15.83 (13:00) 10.83 (12:20) 5.4 0 0 0 5.4
29-12-2019 14.1 (13:50) 8.2 (00:00) 11.2 13.61 (10:40) 9.17 (10:40) 0 0 0 0 0
31-12-2019 14.3 (15:10) 1.3 (00:00) 7.8 12.22 (12:40) 8.33 (12:40) 0 0 0 0 0
27-12-2019 18 (15:30) 5.8 (00:00) 11.9 11.67 (10:10) 7.78 (10:30) 0 0 0 0 0
28-12-2019 16.9 (15:20) 3.7 (00:00) 10.3 10.83 (23:59) 6.67 (23:59) 0 0 0 0 0
10-01-2020 13.2 (16:10) 1.4 (00:00) 7.3 10.56 (17:30) 6.94 (16:30) 0 0 0 0 0
22-12-2019 16 (16:10) 7.9 (00:00) 12 9.72 (15:00) 6.11 (17:00) 0 0 0 0 0
24-12-2019 19.8 (14:10) 2.9 (00:00) 11.3 9.17 (15:50) 6.39 (17:00) 0.2 0 0.2 0 0
04-01-2020 14.3 (15:20) 5.3 (00:00) 9.8 8.89 (15:20) 5.83 (16:20) 0 0 0 0 0
05-01-2020 15.4 (15:30) 4.3 (00:00) 9.8 7.78 (16:10) 5.28 (16:50) 0 0 0 0 0
01-01-2020 17.7 (15:50) 3.2 (00:00) 10.5 7.5 (01:00) 5 (02:10) 0 0 0 0 0
02-01-2020 15.4 (17:10) 3.1 (00:00) 9.2 7.5 (11:10) 5.28 (11:10) 0 0 0 0 0
09-01-2020 15.6 (15:50) 2.3 (00:00) 9 6.67 (16:40) 4.17 (16:40) 0 0 0 0 0
23-12-2019 17.8 (16:40) 7.2 (00:00) 12.5 5.28 (00:50) 2.78 (09:10) 0 0 0 0 0
16-01-2020 18.2 (16:00) -0.6 (-00:0) 8.8 5.28 (14:20) 3.61 (14:20) 0 0 0 0 0
15-01-2020 18 (16:10) -0.1 (00:00) 8.9 5 (17:20) 3.61 (17:30) 0 0 0 0 0
03-01-2020 12.4 (14:50) 1.2 (00:00) 6.8 5 (17:30) 3.33 (16:00) 0 0 0 0 0
14-01-2020 13.6 (14:40) -1.7 (-00:0) 6 5 (15:40) 2.78 (15:40) 0 0 0 0 0
13-01-2020 15.5 (15:10) -1.1 (-00:0) 7.2 4.44 (18:10) 3.61 (18:10) 0 0 0 0 0
06-01-2020 15.8 (17:10) 0.7 (00:00) 8.3 4.17 (12:50) 2.5 (12:50) 0 0 0 0 0
12-01-2020 14.6 (16:20) -0.8 (-00:0) 6.9 4.17 (15:40) 2.5 (18:10) 0 0 0 0 0
17-01-2020 15.3 (15:20) 1.7 (00:00) 8.5 4.17 (13:50) 2.78 (16:40) 0 0 0 0 0
26-12-2019 19.4 (16:10) 4.3 (00:00) 11.8 3.89 (15:20) 2.78 (15:20) 0 0 0 0 0
07-01-2020 18.3 (16:40) -0.9 (-00:0) 8.7 3.61 (18:30) 2.78 (18:40) 0.2 0 0.2 0 0
11-01-2020 16.3 (16:50) -1.7 (-00:0) 7.3 3.61 (18:00) 2.78 (18:00) 0 0 0 0 0
25-12-2019 23.2 (16:20) 3.1 (00:00) 13.2 3.33 (18:10) 2.78 (18:10) 0 0 0 0 0
08-01-2020 19.4 (16:10) -0.6 (-00:0) 9.4 2.78 (18:40) 2.22 (20:20) 0 0 0 0 0
30-12-2019 -- (--) -- (--) -- -- (--) -- (--) -- 0 0 -- 0

Gráficas

Temp. máximas Temp. mínimas Temp. medias Precipitaciones Rachas de viento máximas Velocidades máximas media en intervalos de 10 minutos

Datos horarios

Fecha y hora oficial Temperatura (ºC) Velocidad del viento (km/h) Dirección del viento Racha (km/h) Dirección de racha Precipitación (mm) Presión (hPa) Tendencia (hPa) Humedad (%)
2020-01-17 23:00:00 6.5 4 Noroeste 6 Noroeste 0 -- -- 90
2020-01-17 22:00:00 6.8 5 Este 10 Este 0 -- -- 90
2020-01-17 21:00:00 8.3 0 Calma 10 Norte 0 -- -- 88
2020-01-17 20:00:00 9.6 4 Nordeste 6 Nordeste 0 -- -- 83
2020-01-17 19:00:00 11 4 Norte 9 Norte 0 -- -- 75
2020-01-17 18:00:00 13.2 6 Norte 12 Norte 0 -- -- 68
2020-01-17 17:00:00 14.6 9 Norte 15 Nordeste 0 -- -- 63
2020-01-17 16:00:00 15.1 8 Norte 14 Norte 0 -- -- 62
2020-01-17 15:00:00 14.9 7 Norte 11 Norte 0 -- -- 65
2020-01-17 14:00:00 14.5 8 Norte 15 Norte 0 -- -- 69
2020-01-17 13:00:00 13 2 Este 8 Nordeste 0 -- -- 68
2020-01-17 12:00:00 9.5 0 Calma 6 Oeste 0 -- -- 74
2020-01-17 11:00:00 6.6 0 Calma 5 Norte 0 -- -- 82
2020-01-17 10:00:00 4.7 0 Calma 5 Sur 0 -- -- 91
2020-01-17 09:00:00 3.6 0 Calma 5 Noroeste 0 -- -- 92
2020-01-17 08:00:00 2.4 2 Sudoeste 6 Sudoeste 0 -- -- 93
2020-01-17 07:00:00 2.2 4 Sur 7 Oeste 0 -- -- 92
2020-01-17 06:00:00 1.9 2 Nordeste 4 Norte 0 -- -- 91
2020-01-17 05:00:00 1.9 2 Sur 6 Oeste 0 -- -- 90
2020-01-17 04:00:00 2.5 0 Calma 4 Oeste 0 -- -- 90
2020-01-17 03:00:00 2.9 0 Calma 6 Norte 0 -- -- 86
2020-01-17 02:00:00 3.9 2 Sudoeste 4 Sudoeste 0 -- -- 84
2020-01-17 01:00:00 4.4 2 Oeste 4 Sudeste 0 -- -- 82
2020-01-17 00:00:00 5.1 0 Calma 4 Sudoeste 0 -- -- 80
2020-01-16 23:00:00 5.4 3 Sudeste 5 Sudeste 0 -- -- 80
2020-01-16 22:00:00 5.2 0 Calma 9 Noroeste 0 -- -- 78
2020-01-16 21:00:00 7.3 2 Norte 4 Noroeste 0 -- -- 68
2020-01-16 20:00:00 10.6 3 Sudeste 4 Este 0 -- -- 55
2020-01-16 19:00:00 13.2 3 Sur 6 Noroeste 0 -- -- 47
2020-01-16 18:00:00 15.8 5 Norte 11 Sudoeste 0 -- -- 41
2020-01-16 17:00:00 17.9 5 Oeste 15 Sudoeste 0 -- -- 35
2020-01-16 16:00:00 18.2 7 Sudoeste 16 Sudoeste 0 -- -- 34
2020-01-16 15:00:00 18 6 Sudoeste 19 Sudoeste 0 -- -- 34
2020-01-16 14:00:00 17 12 Sudoeste 18 Oeste 0 -- -- 39
2020-01-16 13:00:00 13.9 3 Sudoeste 9 Sudoeste 0 -- -- 55
2020-01-16 12:00:00 10.4 4 Sudoeste 6 Sudoeste 0 -- -- 65
2020-01-16 11:00:00 5.9 3 Oeste 6 Sudoeste 0 -- -- 82
2020-01-16 10:00:00 2.4 3 Sudoeste 6 Sudoeste 0 -- -- 95
2020-01-16 09:00:00 0.8 2 Sudeste 4 Oeste 0 -- -- 95
2020-01-16 08:00:00 -0.6 2 Oeste 5 Sur 0 -- -- 92
2020-01-16 07:00:00 1 0 Calma 6 Oeste 0 -- -- 93
2020-01-16 06:00:00 -0.2 2 Oeste 4 Oeste 0 -- -- 91
2020-01-16 05:00:00 0.9 2 Sur 4 Sur 0 -- -- 92
2020-01-16 04:00:00 2 3 Sur 4 Sudeste 0 -- -- 92
2020-01-16 03:00:00 1.7 0 Calma 3 Nordeste 0 -- -- 91
2020-01-16 02:00:00 3 3 Nordeste 4 Norte 0 -- -- 91
2020-01-16 01:00:00 3.3 2 Norte 3 Noroeste 0 -- -- 88
2020-01-16 00:00:00 4.1 0 Calma 5 Sur 0 -- -- 87
2020-01-15 23:00:00 5.1 0 Calma 5 Norte 0 -- -- 86
2020-01-15 22:00:00 5.9 5 Norte 5 Norte 0 -- -- 80
2020-01-15 21:00:00 8.2 3 Oeste 7 Sur 0 -- -- 77
2020-01-15 20:00:00 10.9 2 Norte 9 Norte 0 -- -- 68
2020-01-15 19:00:00 11.6 8 Norte 13 Norte 0 -- -- 64
2020-01-15 18:00:00 14.5 8 Norte 18 Norte 0 -- -- 54
2020-01-15 17:00:00 16.8 9 Norte 16 Oeste 0 -- -- 42
2020-01-15 16:00:00 17.7 7 Oeste 16 Oeste 0 -- -- 33
2020-01-15 15:00:00 17.1 4 Oeste 13 Noroeste 0 -- -- 38
2020-01-15 14:00:00 15.9 4 Oeste 9 Oeste 0 -- -- 41
2020-01-15 13:00:00 12.9 4 Oeste 7 Oeste 0 -- -- 61
2020-01-15 12:00:00 9.1 2 Sudoeste 9 Sudoeste 0 -- -- 74
2020-01-15 11:00:00 5.5 3 Sur 8 Oeste 0 -- -- 88
2020-01-15 10:00:00 2.6 2 Sur 3 Sur 0 -- -- 96
2020-01-15 09:00:00 0.4 3 Sur 4 Sur 0 -- -- 94
2020-01-15 08:00:00 -0.1 2 Sur 5 Sudoeste 0 -- -- 93
2020-01-15 07:00:00 0.4 2 Sur 3 Sudeste 0 -- -- 93
2020-01-15 06:00:00 1.2 0 Calma 3 Norte 0 -- -- 93
2020-01-15 05:00:00 1.8 2 Sur 4 Sur 0 -- -- 92
2020-01-15 04:00:00 2 4 Sur 5 Sudeste 0 -- -- 92
2020-01-15 03:00:00 2.4 2 Sur 4 Noroeste 0 -- -- 91
2020-01-15 02:00:00 2.8 3 Oeste 5 Oeste 0 -- -- 91
2020-01-15 01:00:00 3.2 2 Este 5 Sudeste 0 -- -- 88
2020-01-15 00:00:00 3.4 3 Norte 4 Nordeste 0 -- -- 88
2020-01-14 23:00:00 3.7 3 Sudoeste 10 Sur 0 -- -- 87
2020-01-14 22:00:00 4.5 3 Sur 6 Oeste 0 -- -- 84
2020-01-14 21:00:00 5.1 3 Norte 4 Noroeste 0 -- -- 80
2020-01-14 20:00:00 7.8 3 Nordeste 6 Norte 0 -- -- 70
2020-01-14 19:00:00 9.6 4 Norte 5 Norte 0 -- -- 62
2020-01-14 18:00:00 12 2 Norte 5 Nordeste 0 -- -- 53
2020-01-14 17:00:00 12.7 4 Noroeste 11 Noroeste 0 -- -- 48
2020-01-14 16:00:00 12.6 10 Noroeste 18 Noroeste 0 -- -- 49
2020-01-14 15:00:00 13.1 8 Noroeste 15 Norte 0 -- -- 53
2020-01-14 14:00:00 12.9 4 Oeste 9 Sur 0 -- -- 54
2020-01-14 13:00:00 11.1 3 Sudoeste 6 Sur 0 -- -- 63
2020-01-14 12:00:00 8 3 Sudoeste 6 Sudoeste 0 -- -- 75
2020-01-14 11:00:00 5.9 3 Sudoeste 5 Sudoeste 0 -- -- 82
2020-01-14 10:00:00 3 0 Calma 3 Sudoeste 0 -- -- 95
2020-01-14 09:00:00 0.4 0 Calma 3 Sudoeste 0 -- -- 95
2020-01-14 08:00:00 -1.1 0 Calma 4 Sur 0 -- -- 94
2020-01-14 07:00:00 -1.1 0 Calma 5 Oeste 0 -- -- 93
2020-01-14 06:00:00 -0.7 0 Calma 2 Sudoeste 0 -- -- 92
2020-01-14 05:00:00 -0.1 0 Calma 2 Oeste 0 -- -- 93
2020-01-14 04:00:00 -0.6 0 Calma 3 Sudeste 0 -- -- 92
2020-01-14 03:00:00 0.1 0 Calma 2 Noroeste 0 -- -- 91
2020-01-14 02:00:00 0.6 0 Calma 5 Oeste 0 -- -- 91
2020-01-14 01:00:00 0.8 0 Calma 6 Norte 0 -- -- 90
2020-01-14 00:00:00 2 0 Calma 8 Sudeste 0 -- -- 88
2020-01-13 23:00:00 3.2 3 Sur 6 Nordeste 0 -- -- 84
2020-01-13 22:00:00 4.3 4 Norte 6 Norte 0 -- -- 81
2020-01-13 21:00:00 6.8 2 Nordeste 5 Norte 0 -- -- 72
2020-01-13 20:00:00 7.5 4 Norte 11 Norte 0 -- -- 68
2020-01-13 19:00:00 9 9 Nordeste 16 Norte 0 -- -- 63
2020-01-13 18:00:00 11.9 10 Norte 15 Norte 0 -- -- 53
2020-01-13 17:00:00 13.8 9 Norte 14 Norte 0 -- -- 49
2020-01-13 16:00:00 15.5 3 Sudoeste 10 Sur 0 -- -- 44
2020-01-13 15:00:00 15.3 5 Sudoeste 12 Sudoeste 0 -- -- 43
2020-01-13 14:00:00 14.3 8 Sudoeste 12 Sudoeste 0 -- -- 43
2020-01-13 13:00:00 12.8 5 Sudoeste 10 Oeste 0 -- -- 60
2020-01-13 12:00:00 10.9 6 Sudoeste 9 Sudoeste 0 -- -- 76
2020-01-13 11:00:00 7.9 2 Oeste 5 Oeste 0 -- -- 96
2020-01-13 10:00:00 2.6 0 Calma 3 Sudoeste 0 -- -- 97
2020-01-13 09:00:00 1 0 Calma 7 Sudoeste 0 -- -- 92
2020-01-13 08:00:00 0 2 Noroeste 7 Sur 0 -- -- 95
2020-01-13 07:00:00 0.3 0 Calma 2 Noroeste 0 -- -- 94
2020-01-13 06:00:00 1.2 2 Oeste 5 Oeste 0 -- -- 93
2020-01-13 05:00:00 0.8 0 Calma 7 Oeste 0 -- -- 93
2020-01-13 04:00:00 0.8 0 Calma 3 Norte 0 -- -- 93
2020-01-13 03:00:00 0.5 0 Calma 4 Sudeste 0 -- -- 91
2020-01-13 02:00:00 0.7 0 Calma 5 Sudeste 0 -- -- 90
2020-01-13 01:00:00 2 0 Calma 3 Oeste 0 -- -- 90
2020-01-13 00:00:00 2.7 0 Calma 4 Sur 0 -- -- 88
2020-01-12 23:00:00 3.5 0 Calma 2 Oeste 0 -- -- 83
2020-01-12 22:00:00 4.5 2 Sudoeste 6 Sudoeste 0 -- -- 82
2020-01-12 21:00:00 6.4 2 Este 8 Nordeste 0 -- -- 73
2020-01-12 20:00:00 7.8 6 Nordeste 10 Norte 0 -- -- 69
2020-01-12 19:00:00 9.1 8 Norte 12 Norte 0 -- -- 64
2020-01-12 18:00:00 12.7 8 Norte 11 Norte 0 -- -- 50
2020-01-12 17:00:00 13.9 5 Norte 13 Norte 0 -- -- 45
2020-01-12 16:00:00 14.5 7 Norte 15 Noroeste 0 -- -- 44
2020-01-12 15:00:00 14.3 4 Nordeste 12 Norte 0 -- -- 48
2020-01-12 14:00:00 13.3 4 Noroeste 13 Norte 0 -- -- 59
2020-01-12 13:00:00 11.5 4 Sudoeste 6 Sudoeste 0 -- -- 71
2020-01-12 12:00:00 7.7 4 Sudoeste 6 Sudoeste 0 -- -- 90
2020-01-12 11:00:00 4 2 Sudoeste 4 Sudoeste 0 -- -- 97
2020-01-12 10:00:00 1.2 0 Calma 3 Sudeste 0 -- -- 96
2020-01-12 09:00:00 -0.7 0 Calma 2 Noroeste 0 -- -- 96
2020-01-12 08:00:00 -0.6 0 Calma 3 Sudoeste 0 -- -- 95
2020-01-12 07:00:00 -0.3 2 Este 3 Este 0 -- -- 95
2020-01-12 06:00:00 -0.3 3 Noroeste 5 Noroeste 0 -- -- 94
2020-01-12 05:00:00 1.3 0 Calma 4 Norte 0 -- -- 94
2020-01-12 04:00:00 1.4 2 Noroeste 4 Norte 0 -- -- 92
2020-01-12 03:00:00 3.3 3 Norte 5 Noroeste 0 -- -- 93
2020-01-12 02:00:00 3.2 0 Calma 3 Oeste 0 -- -- 92
2020-01-12 01:00:00 4.4 0 Calma 2 Oeste 0 -- -- 88
2020-01-12 00:00:00 4.4 0 Calma 5 Noroeste 0 -- -- 87
2020-01-11 23:00:00 4.3 3 Noroeste 4 Noroeste 0 -- -- 84
2020-01-11 22:00:00 4.9 2 Sudoeste 9 Sur 0 -- -- 80
2020-01-11 21:00:00 6.7 3 Este 8 Sudeste 0 -- -- 73
2020-01-11 20:00:00 8.8 3 Sudeste 10 Norte 0 -- -- 64
2020-01-11 19:00:00 9.7 9 Nordeste 12 Norte 0 -- -- 62
2020-01-11 18:00:00 13.3 10 Norte 13 Norte 0 -- -- 49
2020-01-11 17:00:00 16.2 3 Sudoeste 6 Sur 0 -- -- 42
2020-01-11 16:00:00 15.8 3 Sudoeste 8 Sur 0 -- -- 42
2020-01-11 15:00:00 15.1 3 Sudoeste 8 Sur 0 -- -- 43
2020-01-11 14:00:00 13.1 4 Sudoeste 7 Sudoeste 0 -- -- 52
2020-01-11 13:00:00 10.4 3 Sudoeste 7 Oeste 0 -- -- 63
2020-01-11 12:00:00 7.6 3 Sudoeste 7 Sudoeste 0 -- -- 71
2020-01-11 11:00:00 4.2 2 Sudoeste 4 Sur 0 -- -- 84
2020-01-11 10:00:00 1.8 0 Calma 5 Sudeste 0 -- -- 93
2020-01-11 09:00:00 -1.2 3 Sudeste 6 Norte 0 -- -- 93
2020-01-11 08:00:00 -1.7 5 Norte 6 Norte 0 -- -- 92
2020-01-11 07:00:00 -0.8 3 Sur 4 Sur 0 -- -- 92
2020-01-11 06:00:00 -1.1 4 Norte 6 Norte 0 -- -- 90
2020-01-11 05:00:00 0.6 2 Sudeste 4 Norte 0 -- -- 89
2020-01-11 04:00:00 1.2 0 Calma 9 Sur 0 -- -- 88
2020-01-11 03:00:00 1.8 5 Sur 7 Sur 0 -- -- 87
2020-01-11 02:00:00 2.4 0 Calma 9 Sur 0 -- -- 82
2020-01-11 01:00:00 4.6 4 Este 8 Este 0 -- -- 75
2020-01-11 00:00:00 4.7 2 Sudeste 9 Nordeste 0 -- -- 74
2020-01-10 23:00:00 6.2 8 Nordeste 10 Nordeste 0 -- -- 68
2020-01-10 22:00:00 6.4 4 Este 12 Nordeste 0 -- -- 68
2020-01-10 21:00:00 7 11 Norte 19 Norte 0 -- -- 66
2020-01-10 20:00:00 8.6 18 Norte 26 Norte 0 -- -- 60
2020-01-10 19:00:00 9.8 9 Nordeste 25 Norte 0 -- -- 58
2020-01-10 18:00:00 11.7 18 Norte 38 Norte 0 -- -- 59
2020-01-10 17:00:00 12.7 24 Norte 37 Norte 0 -- -- 56
2020-01-10 16:00:00 13 23 Norte 34 Nordeste 0 -- -- 62
2020-01-10 15:00:00 12.1 21 Norte 32 Norte 0 -- -- 75
2020-01-10 14:00:00 12.1 19 Norte 32 Norte 0 -- -- 76
2020-01-10 13:00:00 11.2 16 Norte 26 Norte 0 -- -- 81
2020-01-10 12:00:00 11.7 14 Norte 23 Norte 0 -- -- 80
2020-01-10 11:00:00 10.4 14 Norte 19 Norte 0 -- -- 89
2020-01-10 10:00:00 6.2 0 Calma 6 Sur 0 -- -- 96
2020-01-10 09:00:00 5.2 0 Calma 5 Nordeste 0 -- -- 95
2020-01-10 08:00:00 5 2 Nordeste 4 Nordeste 0 -- -- 96
2020-01-10 07:00:00 4.6 0 Calma 3 Sudeste 0 -- -- 96
2020-01-10 06:00:00 3.8 0 Calma 2 Sur 0 -- -- 95
2020-01-10 05:00:00 2.4 2 Norte 4 Norte 0 -- -- 95
2020-01-10 04:00:00 2 3 Norte 3 Norte 0 -- -- 95
2020-01-10 03:00:00 1.9 3 Sur 4 Sur 0 -- -- 93
2020-01-10 02:00:00 2.3 0 Calma 5 Sudeste 0 -- -- 93
2020-01-10 01:00:00 2.9 5 Sudeste 6 Sudeste 0 -- -- 93
2020-01-10 00:00:00 3 2 Norte 7 Noroeste 0 -- -- 91
2020-01-09 23:00:00 4.9 3 Sudeste 7 Norte 0 -- -- 91
2020-01-09 22:00:00 5.7 3 Noroeste 7 Sudoeste 0 -- -- 87
2020-01-09 21:00:00 7.1 4 Nordeste 6 Nordeste 0 -- -- 84
2020-01-09 20:00:00 8.5 4 Nordeste 9 Norte 0 -- -- 82
2020-01-09 19:00:00 9.2 9 Norte 12 Norte 0 -- -- 78
2020-01-09 18:00:00 12.2 7 Norte 17 Norte 0 -- -- 70
2020-01-09 17:00:00 13.7 12 Norte 24 Noroeste 0 -- -- 67
2020-01-09 16:00:00 15.5 3 Este 10 Oeste 0 -- -- 53
2020-01-09 15:00:00 15.5 3 Sudoeste 15 Oeste 0 -- -- 57
2020-01-09 14:00:00 14.4 7 Oeste 15 Sudoeste 0 -- -- 60
2020-01-09 13:00:00 13.6 8 Sudoeste 14 Sudoeste 0 -- -- 66
2020-01-09 12:00:00 12.6 7 Sudoeste 11 Sudoeste 0 -- -- 74
2020-01-09 11:00:00 9.6 4 Sur 7 Sur 0 -- -- 97
2020-01-09 10:00:00 3.5 3 Noroeste 5 Oeste 0 -- -- 97
2020-01-09 09:00:00 4.6 0 Calma 5 Noroeste 0 -- -- 96
2020-01-09 08:00:00 2.6 5 Norte 6 Noroeste 0 -- -- 95
2020-01-09 07:00:00 4.5 2 Sudoeste 5 Norte 0 -- -- 95
2020-01-09 06:00:00 5.3 3 Sudoeste 5 Sudoeste 0 -- -- 94
2020-01-09 05:00:00 5.6 0 Calma 5 Oeste 0 -- -- 94
2020-01-09 04:00:00 5.5 3 Oeste 9 Oeste 0 -- -- 93
2020-01-09 03:00:00 6.2 6 Sudoeste 12 Sudoeste 0 -- -- 92
2020-01-09 02:00:00 6.5 7 Sudoeste 11 Sudoeste 0 -- -- 92
2020-01-09 01:00:00 5.8 5 Sudoeste 9 Sudoeste 0 -- -- 92
2020-01-09 00:00:00 6.1 6 Sudoeste 9 Sudoeste 0 -- -- 90
2020-01-08 23:00:00 6.4 4 Sudoeste 7 Sudoeste 0 -- -- 84
2020-01-08 22:00:00 7.1 2 Sudoeste 5 Sur 0 -- -- 77
2020-01-08 21:00:00 8.7 4 Sudoeste 10 Sur 0 -- -- 71
2020-01-08 20:00:00 11.1 3 Sur 8 Sur 0 -- -- 57
2020-01-08 19:00:00 13 4 Sudeste 10 Sur 0 -- -- 49
2020-01-08 18:00:00 17.7 3 Noroeste 6 Sudoeste 0 -- -- 37
2020-01-08 17:00:00 19.2 3 Sudoeste 8 Sudoeste 0 -- -- 36
2020-01-08 16:00:00 19.2 2 Este 8 Nordeste 0 -- -- 32
2020-01-08 15:00:00 18 2 Sudeste 7 Oeste 0 -- -- 32
2020-01-08 14:00:00 15.8 5 Sudoeste 7 Sudoeste 0 -- -- 37
2020-01-08 13:00:00 13.1 3 Oeste 5 Oeste 0 -- -- 55
2020-01-08 12:00:00 8.9 2 Sudoeste 5 Sudoeste 0 -- -- 71
2020-01-08 11:00:00 4.6 4 Sudoeste 6 Sudoeste 0 -- -- 85
2020-01-08 10:00:00 2.3 0 Calma 2 Sur 0 -- -- 95
2020-01-08 09:00:00 -0.6 0 Calma 3 Sur 0 -- -- 95
2020-01-08 08:00:00 -0.4 0 Calma 2 Sudeste 0 -- -- 94
2020-01-08 07:00:00 -0.3 3 Sudeste 4 Sudeste 0 -- -- 93
2020-01-08 06:00:00 0.2 0 Calma 4 Sudeste 0 -- -- 93
2020-01-08 05:00:00 0 0 Calma 3 Norte 0 -- -- 92
2020-01-08 04:00:00 1 2 Norte 3 Norte 0 -- -- 92
2020-01-08 03:00:00 1.5 0 Calma 0 Calma 0 -- -- 91
2020-01-08 02:00:00 2.2 0 Calma 2 Sur 0 -- -- 90
2020-01-08 01:00:00 2.1 0 Calma 6 Sur 0 -- -- 88
2020-01-08 00:00:00 3.5 0 Calma 2 Sur 0 -- -- 84
2020-01-07 23:00:00 4.6 0 Calma 4 Sudoeste 0 -- -- 82
2020-01-07 22:00:00 5.5 4 Sudoeste 5 Sudoeste 0 -- -- 77
2020-01-07 21:00:00 7.3 0 Calma 4 Sudeste 0 -- -- 68
2020-01-07 20:00:00 10.3 0 Calma 5 Sudeste 0 -- -- 57
2020-01-07 19:00:00 12 3 Este 13 Norte 0 -- -- 50
2020-01-07 18:00:00 17.6 2 Norte 4 Oeste 0 -- -- 29
2020-01-07 17:00:00 18.2 3 Oeste 8 Sudoeste 0 -- -- 29
2020-01-07 16:00:00 17.8 5 Oeste 10 Sudoeste 0 -- -- 33
2020-01-07 15:00:00 17.1 5 Sudoeste 10 Oeste 0 -- -- 38
2020-01-07 14:00:00 15 5 Oeste 8 Oeste 0 -- -- 56
2020-01-07 13:00:00 11.6 4 Oeste 9 Sudoeste 0 -- -- 68
2020-01-07 12:00:00 8.4 3 Norte 6 Norte 0 -- -- 96
2020-01-07 11:00:00 4.4 2 Noroeste 4 Noroeste 0.2 -- -- 97
2020-01-07 10:00:00 0.9 3 Sur 6 Sur 0 -- -- 97
2020-01-07 09:00:00 -0.3 0 Calma 9 Sudeste 0 -- -- 96
2020-01-07 08:00:00 -0.7 0 Calma 5 Sur 0 -- -- 96
2020-01-07 07:00:00 -0.4 3 Sudoeste 4 Sudoeste 0 -- -- 95
2020-01-07 06:00:00 -0.5 3 Sur 4 Sur 0 -- -- 94
2020-01-07 05:00:00 0.5 0 Calma 3 Sur 0 -- -- 94
2020-01-07 04:00:00 1 0 Calma 4 Sudeste 0 -- -- 93
2020-01-07 03:00:00 1.6 0 Calma 5 Noroeste 0 -- -- 94
2020-01-07 02:00:00 2.6 0 Calma 5 Norte 0 -- -- 93
2020-01-07 01:00:00 3.7 0 Calma 4 Sudeste 0 -- -- 91
2020-01-07 00:00:00 4.3 0 Calma 4 Sudoeste 0 -- -- 91
2020-01-06 23:00:00 5.8 3 Sudoeste 10 Sudoeste 0 -- -- 88
2020-01-06 22:00:00 6.2 4 Sur 6 Sur 0 -- -- 86
2020-01-06 21:00:00 7.5 3 Sudeste 6 Norte 0 -- -- 81
2020-01-06 20:00:00 10.1 4 Noroeste 11 Nordeste 0 -- -- 71
2020-01-06 19:00:00 10.8 5 Este 9 Sudeste 0 -- -- 67
2020-01-06 18:00:00 14.5 4 Norte 5 Oeste 0 -- -- 54
2020-01-06 17:00:00 15.7 2 Oeste 9 Oeste 0 -- -- 52
2020-01-06 16:00:00 15.5 4 Oeste 8 Sudoeste 0 -- -- 54
2020-01-06 15:00:00 15.1 5 Sudoeste 8 Sudoeste 0 -- -- 57
2020-01-06 14:00:00 13.8 3 Oeste 12 Oeste 0 -- -- 63
2020-01-06 13:00:00 12.4 9 Sudoeste 15 Sudoeste 0 -- -- 70
2020-01-06 12:00:00 10.6 4 Sudoeste 12 Sudoeste 0 -- -- 79
2020-01-06 11:00:00 6.1 2 Sudoeste 7 Sudoeste 0 -- -- 96
2020-01-06 10:00:00 3.9 0 Calma 6 Nordeste 0 -- -- 96